Time;durP1;ratioP1;P1;durP2;ratioP2;P2;SDS_P1;SDS_P2;PMS_P1;PMS_P2;Temp;Humidity;BMP_temperature;BMP_pressure;BME280_temperature;BME280_humidity;BME280_pressure;Samples;Min_cycle;Max_cycle;Signal;HPM_P1;HPM_P2
2022/11/09 00:00:59;;;;;;;3.85;1.00;;;21.20;64.40;;;;;;5067243;28;20433;-71
2022/11/09 00:03:26;;;;;;;16.23;1.63;;;21.10;64.40;;;;;;5065144;28;20016;-72
2022/11/09 00:05:56;;;;;;;4.90;1.42;;;21.10;64.70;;;;;;5069259;28;21138;-69
2022/11/09 00:08:23;;;;;;;4.93;1.05;;;21.10;64.90;;;;;;5065743;28;20390;-71
2022/11/09 00:10:50;;;;;;;3.17;0.82;;;21.10;65.10;;;;;;5067098;28;20418;-70
2022/11/09 00:13:16;;;;;;;2.30;1.27;;;21.10;65.00;;;;;;5064970;28;20040;-75
2022/11/09 00:15:43;;;;;;;4.13;1.38;;;21.10;65.00;;;;;;5065650;28;20072;-71
2022/11/09 00:18:09;;;;;;;16.65;2.70;;;21.00;65.10;;;;;;5066705;28;20029;-69
2022/11/09 00:20:36;;;;;;;17.33;2.70;;;21.10;65.20;;;;;;5064935;28;20111;-74
2022/11/09 00:23:02;;;;;;;5.05;2.67;;;21.10;65.70;;;;;;5067597;28;20055;-73
2022/11/09 00:25:29;;;;;;;7.60;2.05;;;21.00;65.80;;;;;;5069622;28;20089;-72
2022/11/09 00:27:56;;;;;;;6.15;2.28;;;21.10;65.70;;;;;;5070308;28;20020;-71
2022/11/09 00:30:22;;;;;;;7.30;2.30;;;21.10;65.80;;;;;;5068579;28;20032;-70
2022/11/09 00:32:49;;;;;;;3.95;1.65;;;21.10;65.90;;;;;;5076232;28;20017;-70
2022/11/09 00:35:16;;;;;;;4.47;0.70;;;21.10;66.00;;;;;;5068899;28;20021;-71
2022/11/09 00:37:42;;;;;;;3.78;1.10;;;21.10;66.10;;;;;;5071115;28;20009;-71
2022/11/09 00:40:09;;;;;;;7.07;1.20;;;21.10;66.00;;;;;;5072669;28;20043;-74
2022/11/09 00:42:36;;;;;;;8.73;1.98;;;21.10;66.10;;;;;;5070868;28;20016;-72
2022/11/09 00:45:03;;;;;;;3.30;0.75;;;21.10;66.50;;;;;;5073356;28;20071;-74
2022/11/09 00:47:29;;;;;;;5.85;1.10;;;21.20;66.50;;;;;;5073683;28;20013;-73
2022/11/09 00:49:56;;;;;;;3.40;1.45;;;21.20;66.50;;;;;;5074471;28;20667;-73
2022/11/09 00:52:22;;;;;;;2.63;1.05;;;21.20;66.50;;;;;;5068043;28;20101;-73
2022/11/09 00:54:49;;;;;;;4.35;1.00;;;21.20;66.40;;;;;;5070525;28;20078;-74
2022/11/09 00:57:15;;;;;;;4.53;1.45;;;21.20;66.40;;;;;;5067066;28;20029;-72
2022/11/09 00:59:42;;;;;;;2.17;1.00;;;21.30;66.40;;;;;;5066609;28;20027;-70
2022/11/09 01:02:09;;;;;;;4.22;1.00;;;21.20;66.90;;;;;;5071644;28;20053;-74
2022/11/09 01:04:35;;;;;;;1.98;0.75;;;21.20;67.10;;;;;;5069778;28;20123;-72
2022/11/09 01:07:02;;;;;;;4.13;0.73;;;21.20;67.10;;;;;;5071306;28;20037;-72
2022/11/09 01:09:28;;;;;;;4.63;1.00;;;21.20;67.40;;;;;;5068220;28;20142;-71
2022/11/09 01:11:55;;;;;;;3.28;0.90;;;21.20;67.30;;;;;;5068118;28;20103;-72
2022/11/09 01:14:23;;;;;;;3.40;0.77;;;21.20;67.30;;;;;;5065703;28;20391;-71
2022/11/09 01:16:50;;;;;;;4.68;1.85;;;21.20;67.30;;;;;;5065907;28;20023;-73
2022/11/09 01:19:16;;;;;;;3.92;0.93;;;21.20;67.30;;;;;;5071399;28;20029;-72
2022/11/09 01:21:43;;;;;;;3.05;1.33;;;21.10;67.20;;;;;;5068217;28;20378;-76
2022/11/09 01:24:10;;;;;;;3.30;1.10;;;21.10;67.10;;;;;;5071843;28;20036;-73
2022/11/09 01:26:36;;;;;;;5.20;1.40;;;21.10;67.10;;;;;;5071797;28;20471;-75
2022/11/09 01:29:03;;;;;;;6.22;1.63;;;21.10;67.30;;;;;;5065455;28;20032;-75
2022/11/09 01:31:29;;;;;;;2.90;1.38;;;21.00;67.30;;;;;;5064928;28;20020;-74
2022/11/09 01:33:56;;;;;;;7.55;0.95;;;21.00;67.20;;;;;;5065996;28;20056;-73
2022/11/09 01:36:23;;;;;;;5.55;0.80;;;21.00;67.20;;;;;;5067773;28;20500;-72
2022/11/09 01:38:50;;;;;;;8.30;2.60;;;21.00;67.10;;;;;;5064863;28;20024;-72
2022/11/09 01:41:25;;;;;;;3.95;1.13;;;21.00;66.90;;;;;;5068078;28;20033;-75
2022/11/09 01:44:15;;;;;;;3.88;1.23;;;21.00;66.90;;;;;;5062930;28;20090;-74
2022/11/09 01:46:56;;;;;;;3.70;0.70;;;21.00;66.80;;;;;;5070170;28;20558;-72
2022/11/09 01:49:44;;;;;;;3.53;1.08;;;21.00;66.90;;;;;;5070121;28;20391;-75
2022/11/09 01:52:21;;;;;;;8.43;0.80;;;20.90;66.80;;;;;;5065830;28;20115;-73
2022/11/09 01:54:54;;;;;;;3.97;1.00;;;20.90;66.80;;;;;;5067763;28;20415;-76
2022/11/09 01:57:29;;;;;;;1.67;0.95;;;20.90;66.70;;;;;;5070461;28;20016;-75
2022/11/09 02:00:04;;;;;;;2.88;1.65;;;20.80;66.70;;;;;;5066413;28;20032;-71
2022/11/09 02:02:31;;;;;;;6.80;1.35;;;20.80;66.70;;;;;;5068755;28;20066;-73
2022/11/09 02:05:05;;;;;;;5.35;1.00;;;20.80;66.70;;;;;;5067896;28;20078;-74
2022/11/09 02:07:33;;;;;;;6.03;0.98;;;20.80;66.70;;;;;;5067265;28;20016;-72
2022/11/09 02:10:30;;;;;;;3.05;0.90;;;20.70;66.60;;;;;;5070039;28;20047;-73
2022/11/09 02:12:58;;;;;;;4.70;1.20;;;20.80;66.60;;;;;;5071943;28;20107;-73
2022/11/09 02:15:26;;;;;;;3.17;1.10;;;20.70;66.60;;;;;;5070420;28;20037;-75
2022/11/09 02:17:55;;;;;;;2.60;0.80;;;20.70;66.60;;;;;;5066607;28;20035;-73
2022/11/09 02:20:23;;;;;;;6.93;2.00;;;20.70;66.60;;;;;;5067378;28;20059;-72
2022/11/09 02:22:50;;;;;;;3.97;1.08;;;20.70;66.60;;;;;;5063397;28;20058;-71
2022/11/09 02:25:17;;;;;;;1.20;0.80;;;20.60;66.50;;;;;;5068583;28;20535;-73
2022/11/09 02:27:45;;;;;;;5.22;1.30;;;20.60;66.50;;;;;;5068212;28;20024;-77
2022/11/09 02:30:12;;;;;;;2.97;1.05;;;20.60;66.50;;;;;;5062474;28;20029;-74
2022/11/09 02:32:39;;;;;;;3.28;1.02;;;20.60;66.40;;;;;;5063977;28;20021;-70
2022/11/09 02:35:06;;;;;;;6.90;2.08;;;20.60;66.40;;;;;;5067590;28;20031;-73
2022/11/09 02:37:44;;;;;;;4.07;0.80;;;20.50;66.30;;;;;;5071421;28;20063;-75
2022/11/09 02:40:17;;;;;;;7.75;1.67;;;20.60;66.30;;;;;;5070378;28;20028;-73
2022/11/09 02:42:43;;;;;;;2.55;0.85;;;20.50;66.30;;;;;;5068661;28;20357;-74
2022/11/09 02:45:10;;;;;;;14.88;2.85;;;20.50;66.30;;;;;;5067832;28;20036;-72
2022/11/09 02:47:37;;;;;;;4.28;1.25;;;20.50;66.30;;;;;;5066035;28;20124;-73
2022/11/09 02:50:04;;;;;;;4.82;1.30;;;20.50;66.30;;;;;;5064182;28;20013;-73
2022/11/09 02:52:30;;;;;;;4.88;0.85;;;20.50;66.30;;;;;;5068355;28;20455;-73
2022/11/09 02:54:57;;;;;;;2.28;1.05;;;20.50;66.30;;;;;;5069138;28;20027;-74
2022/11/09 02:57:26;;;;;;;5.40;1.27;;;20.50;66.30;;;;;;5070747;28;20381;-73
2022/11/09 02:59:53;;;;;;;2.85;0.98;;;20.40;66.30;;;;;;5066209;28;20032;-73
2022/11/09 03:02:19;;;;;;;5.15;0.90;;;20.40;66.30;;;;;;5069440;28;20031;-71
2022/11/09 03:04:46;;;;;;;4.80;1.02;;;20.40;66.30;;;;;;5068858;28;20036;-74
2022/11/09 03:07:12;;;;;;;3.95;1.25;;;20.40;66.30;;;;;;5068751;28;20032;-71
2022/11/09 03:09:39;;;;;;;9.10;1.40;;;20.40;66.30;;;;;;5068441;28;20076;-72
2022/11/09 03:14:51;;;;;;;2.83;1.00;;;20.40;66.40;;;;;;5072457;28;20059;-73
2022/11/09 03:17:17;;;;;;;3.30;1.00;;;20.40;66.40;;;;;;5070761;28;20060;-71
2022/11/09 03:19:44;;;;;;;5.82;1.02;;;20.40;66.50;;;;;;5067208;28;20443;-70
2022/11/09 03:22:11;;;;;;;2.63;0.85;;;20.40;66.40;;;;;;5071538;28;20020;-71
2022/11/09 03:24:37;;;;;;;3.08;1.20;;;20.40;66.30;;;;;;5070858;28;20037;-73
2022/11/09 03:27:43;;;;;;;1.90;0.75;;;20.40;66.30;;;;;;5065067;28;20108;-74
2022/11/09 03:30:50;;;;;;;2.35;0.90;;;20.40;66.20;;;;;;5062802;28;20020;-72
2022/11/09 03:33:56;;;;;;;4.38;1.08;;;20.40;66.10;;;;;;5067841;28;21434;-73
2022/11/09 03:37:02;;;;;;;3.70;0.95;;;20.40;66.10;;;;;;5063721;28;20401;-70
2022/11/09 03:40:08;;;;;;;8.93;1.27;;;20.40;66.30;;;;;;5065379;28;20020;-74
2022/11/09 03:43:14;;;;;;;5.78;0.93;;;20.40;66.20;;;;;;5068714;28;20036;-74
2022/11/09 03:46:20;;;;;;;3.47;1.02;;;20.40;66.20;;;;;;5067052;28;20028;-74
2022/11/09 03:49:26;;;;;;;6.45;1.20;;;20.40;66.10;;;;;;5064737;28;20032;-74
2022/11/09 03:51:53;;;;;;;6.65;0.93;;;20.40;66.10;;;;;;5062460;28;20032;-73
2022/11/09 03:54:19;;;;;;;3.17;1.13;;;20.40;66.10;;;;;;5068641;28;20016;-72
2022/11/09 03:56:46;;;;;;;23.50;3.72;;;20.40;66.00;;;;;;5065021;28;20028;-70
2022/11/09 03:59:12;;;;;;;11.35;4.75;;;20.40;66.40;;;;;;5063568;28;20039;-73
2022/11/09 04:01:39;;;;;;;14.75;6.88;;;20.40;66.40;;;;;;5055935;28;20036;-70
2022/11/09 04:04:06;;;;;;;12.20;4.35;;;20.30;66.20;;;;;;5063389;28;20016;-72
2022/11/09 04:06:33;;;;;;;10.07;5.10;;;20.40;67.30;;;;;;5064397;28;20483;-72
2022/11/09 04:09:00;;;;;;;10.30;5.72;;;20.40;67.80;;;;;;5062543;28;20025;-70
2022/11/09 04:11:27;;;;;;;21.48;16.30;;;20.30;67.50;;;;;;5064025;28;20013;-72
2022/11/09 04:13:53;;;;;;;18.33;7.63;;;20.30;67.80;;;;;;5069922;28;20074;-72
2022/11/09 04:16:20;;;;;;;7.53;5.43;;;20.40;68.80;;;;;;5065901;28;20593;-72
2022/11/09 04:19:29;;;;;;;5.90;2.78;;;20.30;67.60;;;;;;5061334;28;20104;-71
2022/11/09 04:22:35;;;;;;;7.32;2.40;;;20.30;67.20;;;;;;5051122;28;20053;-71
2022/11/09 04:25:41;;;;;;;20.35;6.63;;;20.30;66.80;;;;;;5061333;28;20036;-72
2022/11/09 04:28:10;;;;;;;10.00;6.75;;;20.30;66.90;;;;;;5059773;28;20033;-73
2022/11/09 04:30:38;;;;;;;12.45;4.70;;;20.30;66.80;;;;;;5061733;28;20132;-71
2022/11/09 04:33:05;;;;;;;10.43;3.33;;;20.30;66.70;;;;;;5056947;28;20021;-73
2022/11/09 04:35:33;;;;;;;13.98;2.60;;;20.30;66.60;;;;;;5062258;28;20032;-71
2022/11/09 04:38:03;;;;;;;11.40;3.00;;;20.30;66.60;;;;;;5056005;28;20029;-71
2022/11/09 04:40:31;;;;;;;4.50;2.08;;;20.30;66.50;;;;;;5063697;28;20028;-71
2022/11/09 04:43:03;;;;;;;8.18;3.67;;;20.30;66.50;;;;;;5060589;28;20048;-72
2022/11/09 04:45:31;;;;;;;5.88;1.90;;;20.30;66.50;;;;;;5059767;28;20032;-72
2022/11/09 04:48:06;;;;;;;7.05;2.80;;;20.30;66.50;;;;;;5063712;28;20020;-74
2022/11/09 04:51:12;;;;;;;4.65;1.90;;;20.30;66.50;;;;;;5054703;28;20036;-69
2022/11/09 04:54:18;;;;;;;11.65;1.85;;;20.30;66.60;;;;;;5077719;28;20017;-72
2022/11/09 04:57:24;;;;;;;2.97;1.00;;;20.30;66.80;;;;;;5068044;28;20025;-70
2022/11/09 05:00:30;;;;;;;7.15;2.17;;;20.20;66.90;;;;;;5065347;28;20086;-75
2022/11/09 05:03:39;;;;;;;3.63;1.02;;;20.30;67.10;;;;;;5068505;28;20047;-72
2022/11/09 05:06:46;;;;;;;1.30;0.80;;;20.30;67.10;;;;;;5074284;28;20090;-71
2022/11/09 05:09:52;;;;;;;2.22;0.95;;;20.30;67.20;;;;;;5063955;28;20024;-75
2022/11/09 05:12:58;;;;;;;4.20;1.33;;;20.30;67.30;;;;;;5067652;28;20133;-72
2022/11/09 05:16:04;;;;;;;4.10;0.93;;;20.40;67.40;;;;;;5062009;28;20048;-73
2022/11/09 05:19:10;;;;;;;3.92;1.30;;;20.40;67.40;;;;;;5071217;28;20024;-69
2022/11/09 05:25:40;;;;;;;4.35;1.27;;;20.50;67.30;;;;;;5064103;28;20086;-72
2022/11/09 05:28:46;;;;;;;3.83;1.52;;;20.50;67.20;;;;;;5070876;28;20028;-73
2022/11/09 05:31:52;;;;;;;6.28;1.10;;;20.50;67.20;;;;;;5072399;28;20027;-75
2022/11/09 05:34:58;;;;;;;4.60;1.17;;;20.60;67.20;;;;;;5065197;28;20476;-71
2022/11/09 05:38:07;;;;;;;6.32;2.85;;;20.60;67.20;;;;;;5072469;28;20653;-73
2022/11/09 05:41:13;;;;;;;6.72;1.58;;;20.70;67.20;;;;;;5071000;28;20380;-70
2022/11/09 05:44:19;;;;;;;5.50;1.70;;;20.70;67.10;;;;;;5071186;28;20024;-70
2022/11/09 05:47:28;;;;;;;4.20;1.35;;;20.80;67.00;;;;;;5069377;28;20032;-75
2022/11/09 05:50:35;;;;;;;4.68;2.20;;;20.80;66.90;;;;;;5069125;28;20031;-71
2022/11/09 05:53:05;;;;;;;6.78;1.55;;;20.80;66.80;;;;;;5069561;28;20020;-66
2022/11/09 05:55:32;;;;;;;4.43;1.85;;;20.90;66.80;;;;;;5066140;28;20037;-71
2022/11/09 05:57:58;;;;;;;6.32;1.70;;;20.90;66.70;;;;;;5077399;28;20023;-72
2022/11/09 06:00:25;;;;;;;6.13;1.85;;;20.90;66.70;;;;;;5068813;28;20383;-70
2022/11/09 06:02:52;;;;;;;2.10;1.10;;;20.90;66.70;;;;;;5069610;28;20020;-68
2022/11/09 06:05:21;;;;;;;3.08;0.77;;;21.00;66.60;;;;;;5073088;28;20029;-71
2022/11/09 06:07:47;;;;;;;3.78;1.23;;;21.00;66.50;;;;;;5067727;28;20031;-71
2022/11/09 06:10:33;;;;;;;4.78;0.93;;;21.00;66.40;;;;;;5072658;28;20118;-65
2022/11/09 06:13:00;;;;;;;4.32;1.13;;;21.00;66.30;;;;;;5064491;28;20035;-69
2022/11/09 06:15:32;;;;;;;3.83;1.00;;;21.10;66.30;;;;;;5073672;28;20052;-69
2022/11/09 06:17:59;;;;;;;5.78;1.13;;;21.10;65.90;;;;;;5071247;28;20103;-70
2022/11/09 06:20:27;;;;;;;3.95;1.00;;;21.10;65.60;;;;;;5070571;28;20031;-72
2022/11/09 06:22:59;;;;;;;2.78;1.10;;;21.20;65.20;;;;;;5070641;28;20024;-72
2022/11/09 06:25:26;;;;;;;2.30;0.80;;;21.20;64.60;;;;;;5068266;28;20483;-71
2022/11/09 06:27:57;;;;;;;5.00;1.38;;;21.20;64.20;;;;;;5069837;28;20031;-75
2022/11/09 06:30:23;;;;;;;2.45;0.98;;;21.30;63.90;;;;;;5068637;28;20108;-73
2022/11/09 06:32:50;;;;;;;3.90;0.93;;;21.30;63.50;;;;;;5064668;28;20075;-71
2022/11/09 06:35:16;;;;;;;20.50;2.53;;;21.40;63.30;;;;;;5072961;28;20028;-71
2022/11/09 06:37:43;;;;;;;3.40;1.63;;;21.40;63.10;;;;;;5067774;28;20100;-71
2022/11/09 06:40:11;;;;;;;6.88;1.52;;;21.40;62.90;;;;;;5072598;28;20131;-71
2022/11/09 06:42:37;;;;;;;6.45;0.90;;;21.50;62.70;;;;;;5077065;28;20100;-74
2022/11/09 06:45:04;;;;;;;6.72;1.63;;;21.50;62.20;;;;;;5064467;28;20640;-74
2022/11/09 06:47:31;;;;;;;3.45;0.73;;;21.50;61.60;;;;;;5070010;28;20107;-69
2022/11/09 06:49:57;;;;;;;2.20;0.63;;;21.60;61.10;;;;;;5067758;28;20024;-73
2022/11/09 06:52:24;;;;;;;8.95;1.00;;;21.60;60.90;;;;;;5072343;28;20032;-71
2022/11/09 06:54:51;;;;;;;3.50;1.23;;;21.60;60.80;;;;;;5067883;28;20488;-72
2022/11/09 06:57:17;;;;;;;4.25;0.70;;;21.70;60.60;;;;;;5068693;28;20082;-69
2022/11/09 06:59:44;;;;;;;1.60;1.08;;;21.70;60.20;;;;;;5069805;28;20099;-69
2022/11/09 07:02:18;;;;;;;1.63;0.93;;;21.70;59.60;;;;;;5077246;28;20028;-71
2022/11/09 07:04:45;;;;;;;4.27;1.00;;;21.70;59.10;;;;;;5071963;28;20110;-73
2022/11/09 07:07:11;;;;;;;2.58;1.05;;;21.70;58.30;;;;;;5068324;28;20284;-71
2022/11/09 07:09:38;;;;;;;0.75;0.45;;;21.70;57.90;;;;;;5066585;28;20031;-72
2022/11/09 07:12:05;;;;;;;3.00;0.60;;;21.70;57.50;;;;;;5067794;28;20025;-72
2022/11/09 07:14:31;;;;;;;3.60;0.68;;;21.70;57.10;;;;;;5074959;28;20134;-70
2022/11/09 07:16:58;;;;;;;3.05;0.80;;;21.70;56.70;;;;;;5070929;28;20023;-69
2022/11/09 07:19:24;;;;;;;5.28;0.70;;;21.70;56.40;;;;;;5071044;28;20505;-70
2022/11/09 07:21:51;;;;;;;2.28;0.47;;;21.70;56.60;;;;;;5069147;28;20024;-71
2022/11/09 07:24:17;;;;;;;10.93;2.35;;;21.70;56.40;;;;;;5065812;28;20033;-69
2022/11/09 07:26:44;;;;;;;3.03;0.77;;;21.70;56.30;;;;;;5070989;28;20027;-70
2022/11/09 07:29:10;;;;;;;1.75;0.50;;;21.80;56.10;;;;;;5070943;28;20477;-70
2022/11/09 07:31:37;;;;;;;0.88;0.52;;;21.80;56.00;;;;;;5068249;28;20021;-70
2022/11/09 07:34:03;;;;;;;6.25;0.98;;;21.80;56.40;;;;;;5070011;28;20028;-72
2022/11/09 07:36:31;;;;;;;3.40;0.75;;;21.80;55.80;;;;;;5071446;28;20032;-72
2022/11/09 07:39:04;;;;;;;2.28;1.23;;;21.80;55.70;;;;;;5062567;28;20093;-70
2022/11/09 07:41:30;;;;;;;1.27;0.75;;;21.80;55.50;;;;;;5070407;28;20029;-70
2022/11/09 07:43:58;;;;;;;1.20;0.50;;;21.80;54.80;;;;;;5071688;28;20503;-68
2022/11/09 07:46:29;;;;;;;2.40;0.98;;;21.80;54.40;;;;;;5068434;28;20154;-71
2022/11/09 07:48:56;;;;;;;2.13;0.60;;;21.80;54.10;;;;;;5069311;28;20033;-69
2022/11/09 07:51:22;;;;;;;0.50;0.50;;;21.80;54.10;;;;;;5066102;28;20030;-73
2022/11/09 07:53:48;;;;;;;3.22;0.65;;;21.80;54.60;;;;;;5070669;28;20016;-69
2022/11/09 07:56:15;;;;;;;1.90;0.63;;;21.80;55.10;;;;;;5066196;28;20021;-70
2022/11/09 07:58:42;;;;;;;1.27;0.43;;;21.70;55.40;;;;;;5069097;28;20475;-71
2022/11/09 08:01:17;;;;;;;3.13;0.93;;;21.70;55.50;;;;;;5065482;28;20415;-67
2022/11/09 08:03:44;;;;;;;1.55;0.68;;;21.80;55.70;;;;;;5068588;28;20116;-71
2022/11/09 08:06:10;;;;;;;2.63;0.43;;;21.80;55.70;;;;;;5070850;28;20495;-69
2022/11/09 08:08:37;;;;;;;0.77;0.75;;;21.80;55.80;;;;;;5068192;28;20017;-67
2022/11/09 08:11:04;;;;;;;4.97;0.93;;;21.90;56.70;;;;;;5066624;28;20025;-72
2022/11/09 08:13:31;;;;;;;4.55;1.05;;;22.00;58.60;;;;;;5072072;28;20035;-69
2022/11/09 08:16:01;;;;;;;5.32;0.70;;;22.00;60.30;;;;;;5068316;28;20559;-69
2022/11/09 08:18:28;;;;;;;7.13;1.23;;;22.10;60.70;;;;;;5068917;28;20020;-71
2022/11/09 08:21:04;;;;;;;27.15;4.18;;;22.10;60.60;;;;;;5067202;28;20028;-70
2022/11/09 08:23:30;;;;;;;3.15;0.82;;;22.20;60.50;;;;;;5068226;28;20020;-74
2022/11/09 08:26:01;;;;;;;2.15;0.90;;;22.20;60.20;;;;;;5071605;28;20048;-70
2022/11/09 08:28:27;;;;;;;3.00;1.08;;;22.30;59.80;;;;;;5062273;28;20028;-70
2022/11/09 08:30:59;;;;;;;7.28;1.30;;;22.30;59.40;;;;;;5070765;28;20021;-68
2022/11/09 08:33:28;;;;;;;3.65;0.70;;;22.40;59.30;;;;;;5068062;28;20020;-66
2022/11/09 08:35:55;;;;;;;4.53;0.88;;;22.30;58.90;;;;;;5067227;28;20020;-68
2022/11/09 08:38:22;;;;;;;3.53;0.80;;;22.40;58.90;;;;;;5061768;28;20036;-68
2022/11/09 08:40:59;;;;;;;4.45;1.25;;;22.40;59.00;;;;;;5066628;28;20009;-71
2022/11/09 08:43:35;;;;;;;2.63;0.73;;;22.40;59.20;;;;;;5066894;28;20029;-69
2022/11/09 08:46:08;;;;;;;1.88;0.77;;;22.40;59.30;;;;;;5067962;28;20064;-68
2022/11/09 08:48:34;;;;;;;9.63;1.13;;;22.40;59.90;;;;;;5073341;28;20104;-68
2022/11/09 08:51:04;;;;;;;3.00;0.90;;;22.40;59.20;;;;;;5072475;28;20024;-71
2022/11/09 08:53:30;;;;;;;4.47;0.98;;;22.40;59.20;;;;;;5069494;28;20016;-69
2022/11/09 08:55:57;;;;;;;3.42;0.82;;;22.40;59.20;;;;;;5075143;28;20021;-69
2022/11/09 08:58:24;;;;;;;2.22;0.90;;;22.50;59.40;;;;;;5069528;28;20430;-72
2022/11/09 09:00:50;;;;;;;5.05;1.00;;;22.50;59.70;;;;;;5070086;28;20021;-68
2022/11/09 09:03:17;;;;;;;3.20;1.23;;;22.60;59.70;;;;;;5068524;28;20017;-71
2022/11/09 09:05:44;;;;;;;2.83;1.08;;;22.60;59.90;;;;;;5069635;28;20036;-74
2022/11/09 09:08:11;;;;;;;9.30;2.10;;;22.60;61.20;;;;;;5066658;28;20021;-68
2022/11/09 09:10:39;;;;;;;13.75;3.35;;;22.70;61.90;;;;;;5069484;28;20016;-69
2022/11/09 09:13:05;;;;;;;11.68;1.17;;;22.70;62.00;;;;;;5071312;28;20070;-71
2022/11/09 09:15:53;;;;;;;4.00;1.30;;;22.80;62.00;;;;;;5071630;28;20052;-67
2022/11/09 09:18:19;;;;;;;3.45;2.20;;;22.80;61.50;;;;;;5068503;28;20037;-72
2022/11/09 09:20:58;;;;;;;3.22;0.80;;;22.80;61.00;;;;;;5070680;28;20023;-67
2022/11/09 09:23:25;;;;;;;2.35;0.82;;;22.90;60.90;;;;;;5074865;28;20035;-73
2022/11/09 09:25:51;;;;;;;3.50;1.42;;;22.90;61.00;;;;;;5071926;28;20514;-74
2022/11/09 09:28:18;;;;;;;2.53;0.85;;;22.90;61.30;;;;;;5072387;28;20100;-69
2022/11/09 09:30:44;;;;;;;8.20;1.15;;;22.80;61.60;;;;;;5062911;28;20013;-70
2022/11/09 09:33:11;;;;;;;8.75;1.35;;;22.80;62.20;;;;;;5073623;28;20025;-73
2022/11/09 09:35:44;;;;;;;4.32;1.08;;;22.70;62.70;;;;;;5074698;28;20024;-69
2022/11/09 09:38:10;;;;;;;8.88;2.03;;;22.60;63.20;;;;;;5071571;28;20027;-68
2022/11/09 09:40:46;;;;;;;12.43;2.75;;;22.60;63.60;;;;;;5069880;28;20116;-72
2022/11/09 09:43:25;;;;;;;2.30;0.88;;;22.60;63.90;;;;;;5070420;28;20467;-70
2022/11/09 09:45:53;;;;;;;4.90;1.40;;;22.50;63.80;;;;;;5074009;28;20032;-69
2022/11/09 09:48:41;;;;;;;4.57;1.20;;;22.50;64.20;;;;;;5071268;28;20624;-67
2022/11/09 09:51:31;;;;;;;4.50;1.40;;;22.40;64.20;;;;;;5068703;28;20024;-68
2022/11/09 09:54:21;;;;;;;3.05;1.13;;;22.40;64.60;;;;;;5059665;28;20033;-70
2022/11/09 09:56:50;;;;;;;4.00;1.42;;;22.40;65.30;;;;;;5070650;28;20467;-76
2022/11/09 09:59:35;;;;;;;8.32;1.85;;;22.30;65.90;;;;;;5067957;28;20040;-75
2022/11/09 10:02:27;;;;;;;4.47;1.73;;;22.30;66.60;;;;;;5069231;28;20025;-72
2022/11/09 10:05:00;;;;;;;1.05;0.70;;;22.30;67.70;;;;;;5069626;28;20049;-73
2022/11/09 10:07:37;;;;;;;3.55;0.93;;;22.20;69.20;;;;;;5067359;28;20021;-71
2022/11/09 10:10:28;;;;;;;2.22;1.30;;;22.10;68.90;;;;;;5067108;28;20666;-76
2022/11/09 10:13:22;;;;;;;3.85;0.98;;;22.10;69.10;;;;;;5068847;28;20383;-74
2022/11/09 10:16:10;;;;;;;2.65;0.90;;;22.10;69.80;;;;;;5069409;28;20516;-73
2022/11/09 10:18:44;;;;;;;3.30;1.38;;;22.00;70.50;;;;;;5069815;28;20024;-75
2022/11/09 10:21:43;;;;;;;8.23;1.92;;;22.00;71.10;;;;;;5073389;28;20063;-73
2022/11/09 10:24:27;;;;;;;10.50;2.72;;;22.00;71.20;;;;;;5068414;28;20043;-74
2022/11/09 10:26:59;;;;;;;5.07;2.70;;;22.00;71.50;;;;;;5064252;28;20025;-73
2022/11/09 10:29:41;;;;;;;5.80;1.55;;;22.00;72.00;;;;;;5069871;28;20077;-74
2022/11/09 10:32:15;;;;;;;4.38;1.42;;;22.00;72.10;;;;;;5067032;28;20025;-73
2022/11/09 10:35:01;;;;;;;21.08;2.97;;;22.00;72.60;;;;;;5069915;28;20475;-73
2022/11/09 10:37:37;;;;;;;10.05;2.58;;;22.00;73.50;;;;;;5065609;28;20029;-72
2022/11/09 10:40:40;;;;;;;19.75;2.78;;;22.00;74.30;;;;;;5065333;28;20043;-72
2022/11/09 10:43:11;;;;;;;8.18;2.35;;;22.00;75.70;;;;;;5070605;28;20360;-74
2022/11/09 10:46:03;;;;;;;6.45;1.40;;;22.10;76.10;;;;;;5069166;28;20040;-69
2022/11/09 10:48:48;;;;;;;6.47;1.98;;;22.10;75.90;;;;;;5070352;28;20032;-67
2022/11/09 10:51:46;;;;;;;9.00;1.43;;;22.10;75.10;;;;;;5073201;28;20043;-74
2022/11/09 10:54:36;;;;;;;4.70;1.30;;;22.10;74.60;;;;;;5071466;28;20059;-74
2022/11/09 10:57:10;;;;;;;3.97;1.42;;;22.10;74.30;;;;;;5069281;28;20578;-74
2022/11/09 11:00:18;;;;;;;2.53;1.23;;;22.20;74.30;;;;;;5074225;28;20375;-74
2022/11/09 11:03:16;;;;;;;5.00;1.90;;;22.20;73.80;;;;;;5070944;28;20494;-70
2022/11/09 11:05:43;;;;;;;4.28;1.27;;;22.30;73.30;;;;;;5061227;28;20059;-75
2022/11/09 11:08:25;;;;;;;4.68;1.27;;;22.30;73.00;;;;;;5068409;28;20031;-69
2022/11/09 11:11:22;;;;;;;2.65;1.35;;;22.30;72.60;;;;;;5070844;28;20413;-72
2022/11/09 11:14:05;;;;;;;3.13;1.23;;;22.40;71.90;;;;;;5070213;28;20066;-71
2022/11/09 11:16:34;;;;;;;3.60;1.38;;;22.50;71.40;;;;;;5069398;28;20036;-72
2022/11/09 11:19:02;;;;;;;6.47;1.85;;;22.50;70.80;;;;;;5065448;28;20027;-69
2022/11/09 11:21:29;;;;;;;3.75;1.52;;;22.50;70.20;;;;;;5069004;28;20050;-72
2022/11/09 11:24:15;;;;;;;3.35;1.27;;;22.60;69.80;;;;;;5068357;28;20506;-71
2022/11/09 11:27:28;;;;;;;5.35;2.15;;;22.60;69.20;;;;;;5071287;28;20019;-69
2022/11/09 11:30:13;;;;;;;3.78;1.35;;;22.80;69.10;;;;;;5069838;28;20028;-68
2022/11/09 11:32:40;;;;;;;13.45;1.80;;;22.90;68.80;;;;;;5068419;28;20380;-71
2022/11/09 11:35:28;;;;;;;4.82;1.73;;;23.00;68.00;;;;;;5063631;28;20032;-68
2022/11/09 11:38:00;;;;;;;5.95;2.22;;;23.10;67.40;;;;;;5074999;28;20020;-73
2022/11/09 11:40:53;;;;;;;4.03;2.50;;;23.20;66.90;;;;;;5068416;28;20028;-70
2022/11/09 11:43:26;;;;;;;4.03;2.25;;;23.30;65.80;;;;;;5026105;28;20503;-74
2022/11/09 11:46:26;;;;;;;5.38;1.30;;;23.40;64.40;;;;;;5069579;28;20382;-72
2022/11/09 11:49:04;;;;;;;4.20;1.27;;;23.50;63.50;;;;;;5063299;28;21050;-73
2022/11/09 11:51:54;;;;;;;3.05;1.00;;;23.50;62.80;;;;;;5071617;28;20097;-74
2022/11/09 11:54:41;;;;;;;5.97;2.00;;;23.60;62.40;;;;;;5060783;28;20680;-69
2022/11/09 11:57:42;;;;;;;4.88;1.20;;;23.70;62.00;;;;;;5065924;28;20511;-68
2022/11/09 12:00:21;;;;;;;4.28;1.48;;;23.70;61.70;;;;;;5061678;28;20035;-73
2022/11/09 14:14:17;;;;;;;4.28;1.60;;;23.70;53.90;;;;;;5099736;27;21104;-73
2022/11/09 14:17:18;;;;;;;7.72;1.73;;;24.10;53.70;;;;;;5100290;28;20075;-75
2022/11/09 14:19:47;;;;;;;18.38;2.65;;;24.10;53.70;;;;;;5098885;28;20366;-75
2022/11/09 14:22:17;;;;;;;10.27;1.67;;;24.20;53.50;;;;;;5099605;28;20127;-71
2022/11/09 14:24:45;;;;;;;24.70;9.48;;;24.10;53.10;;;;;;5096765;28;20023;-73
2022/11/09 14:27:13;;;;;;;22.55;14.07;;;24.10;53.70;;;;;;5095896;28;20060;-67
2022/11/09 14:29:51;;;;;;;18.75;4.35;;;24.10;54.70;;;;;;5097605;28;20122;-68
2022/11/09 14:32:22;;;;;;;10.80;3.17;;;24.10;53.30;;;;;;5094278;28;20779;-70
2022/11/09 14:34:48;;;;;;;7.75;3.25;;;24.20;53.30;;;;;;5098650;28;20020;-68
2022/11/09 14:37:15;;;;;;;5.80;1.60;;;24.20;53.60;;;;;;5099622;28;20031;-71
2022/11/09 14:39:51;;;;;;;1.38;1.00;;;24.20;54.00;;;;;;5098979;28;20024;-72
2022/11/09 14:42:20;;;;;;;2.60;1.20;;;24.30;52.90;;;;;;5105076;28;20035;-71
2022/11/09 14:44:47;;;;;;;3.15;1.33;;;24.30;52.60;;;;;;5109300;28;20020;-70
2022/11/09 14:47:27;;;;;;;2.83;1.23;;;24.30;52.00;;;;;;5110202;28;20077;-70
2022/11/09 14:49:54;;;;;;;1.67;0.63;;;24.30;51.70;;;;;;5111514;28;20027;-67
2022/11/09 14:52:26;;;;;;;2.28;1.00;;;24.30;51.40;;;;;;5110924;28;20024;-72
2022/11/09 14:54:54;;;;;;;5.20;1.60;;;24.40;51.20;;;;;;5108162;28;20561;-71
2022/11/09 14:57:22;;;;;;;4.15;1.58;;;24.40;51.00;;;;;;5110981;28;20497;-70
2022/11/09 14:59:49;;;;;;;5.25;1.27;;;24.40;50.80;;;;;;5108671;28;20561;-69
2022/11/09 15:02:19;;;;;;;3.83;1.15;;;24.40;50.80;;;;;;5101491;28;20039;-70
2022/11/09 15:04:59;;;;;;;1.95;0.88;;;24.40;50.90;;;;;;5101551;28;20063;-70
2022/11/09 15:07:35;;;;;;;1.45;0.77;;;24.40;51.10;;;;;;5102143;28;20560;-70
2022/11/09 15:10:07;;;;;;;4.88;1.40;;;24.40;51.20;;;;;;5103871;28;20027;-68
2022/11/09 15:12:35;;;;;;;3.90;0.75;;;24.40;51.30;;;;;;5100597;28;20040;-70
2022/11/09 15:15:04;;;;;;;4.05;0.85;;;24.40;51.40;;;;;;5088036;28;20028;-72
2022/11/09 15:17:36;;;;;;;6.13;1.20;;;24.40;51.50;;;;;;5085299;28;20038;-70
2022/11/09 15:20:08;;;;;;;2.35;1.17;;;24.40;51.30;;;;;;5090020;28;20076;-71
2022/11/09 15:22:52;;;;;;;3.47;1.52;;;24.40;51.20;;;;;;5087069;28;20036;-71
2022/11/09 15:25:45;;;;;;;4.95;1.02;;;24.40;51.20;;;;;;5086431;28;20610;-69
2022/11/09 15:28:12;;;;;;;2.60;1.15;;;24.40;51.10;;;;;;5081461;28;20032;-68
2022/11/09 15:30:43;;;;;;;2.45;1.20;;;24.30;51.20;;;;;;5088864;28;20017;-70
2022/11/09 15:33:24;;;;;;;2.45;1.30;;;24.30;51.30;;;;;;5085225;28;20032;-68
2022/11/09 15:35:54;;;;;;;2.22;0.98;;;24.30;51.40;;;;;;5087544;28;20032;-68
2022/11/09 15:38:41;;;;;;;4.95;1.50;;;24.30;51.70;;;;;;5089220;28;20028;-69
2022/11/09 15:41:20;;;;;;;3.88;1.10;;;24.30;52.00;;;;;;5089945;28;20059;-68
2022/11/09 15:43:46;;;;;;;5.53;2.00;;;24.30;52.20;;;;;;5081457;28;20592;-69